Time;durP1;ratioP1;P1;durP2;ratioP2;P2;SDS_P1;SDS_P2;PMS_P1;PMS_P2;Temp;Humidity;BMP_temperature;BMP_pressure;BME280_temperature;BME280_humidity;BME280_pressure;Samples;Min_cycle;Max_cycle;Signal;HPM_P1;HPM_P2
2023/01/02 00:00:42;;;;;;;11.82;7.82;;;;;;;17.96;66.03;101022.97;5041535;28;20375;-76
2023/01/02 00:03:07;;;;;;;14.85;8.93;;;;;;;18.01;65.83;101022.97;5024012;28;20048;-75
2023/01/02 00:05:34;;;;;;;16.63;9.10;;;;;;;18.12;66.17;101022.72;5018658;28;20045;-75
2023/01/02 00:08:01;;;;;;;14.57;8.35;;;;;;;18.09;65.79;101015.09;5037174;28;20025;-75
2023/01/02 00:10:26;;;;;;;18.15;8.73;;;;;;;17.93;66.80;101018.88;5042568;28;20037;-74
2023/01/02 00:12:52;;;;;;;17.15;9.18;;;;;;;18.28;65.54;101020.81;5046874;28;20037;-74
2023/01/02 00:15:17;;;;;;;19.38;9.65;;;;;;;17.13;69.83;101019.41;5044920;28;20528;-75
2023/01/02 00:17:43;;;;;;;20.17;9.82;;;;;;;17.68;67.87;101015.28;5044724;28;20036;-74
2023/01/02 00:20:09;;;;;;;15.80;9.60;;;;;;;18.07;66.28;101008.28;5043918;28;20409;-72
2023/01/02 00:22:49;;;;;;;19.10;9.63;;;;;;;18.23;66.22;101004.50;5045458;28;20041;-75
2023/01/02 00:25:15;;;;;;;23.10;10.40;;;;;;;17.98;66.19;101007.22;5042342;28;20049;-75
2023/01/02 00:27:40;;;;;;;14.50;9.23;;;;;;;18.10;66.38;101002.34;5045029;28;20429;-75
2023/01/02 00:30:06;;;;;;;22.15;10.25;;;;;;;17.96;66.88;100999.31;5045031;28;20063;-75
2023/01/02 00:32:31;;;;;;;25.13;12.88;;;;;;;18.25;65.66;101002.34;5043192;28;20030;-76
2023/01/02 00:34:57;;;;;;;16.55;10.10;;;;;;;18.00;66.27;101008.59;5045547;28;20032;-75
2023/01/02 00:37:22;;;;;;;17.08;10.48;;;;;;;17.57;68.04;101000.88;5045361;28;20038;-75
2023/01/02 00:39:48;;;;;;;19.25;10.80;;;;;;;17.79;67.28;101000.66;5042578;28;20041;-75
2023/01/02 00:42:13;;;;;;;17.02;10.10;;;;;;;17.43;69.48;101007.84;5024441;28;20032;-75
2023/01/02 00:44:39;;;;;;;28.05;11.10;;;;;;;17.90;66.97;101005.84;5045032;28;20405;-75
2023/01/02 00:47:04;;;;;;;23.60;10.60;;;;;;;18.51;65.56;100993.13;5045550;28;20058;-75
2023/01/02 00:49:29;;;;;;;20.83;10.70;;;;;;;18.28;66.05;100996.34;5045365;28;20037;-75
2023/01/02 00:51:55;;;;;;;28.13;10.52;;;;;;;17.71;67.99;100987.59;5043506;28;20041;-76
2023/01/02 00:54:21;;;;;;;17.05;9.60;;;;;;;18.02;67.24;100990.09;5045770;28;20033;-74
2023/01/02 00:56:46;;;;;;;21.85;9.95;;;;;;;18.22;66.29;100984.63;5045231;28;20120;-77
2023/01/02 00:59:11;;;;;;;18.48;10.27;;;;;;;17.99;67.39;100984.34;5043589;28;20033;-76
2023/01/02 01:01:37;;;;;;;22.38;10.27;;;;;;;18.70;65.17;100983.28;5043390;28;20041;-75
2023/01/02 01:04:02;;;;;;;20.73;9.63;;;;;;;18.40;66.46;100978.66;5045266;28;20033;-76
2023/01/02 01:06:28;;;;;;;17.85;10.77;;;;;;;18.45;65.92;100980.59;5043346;28;20037;-75
2023/01/02 01:08:53;;;;;;;20.95;9.32;;;;;;;18.72;64.71;100972.09;5044848;28;20037;-75
2023/01/02 01:11:19;;;;;;;25.42;9.90;;;;;;;17.76;67.73;100977.53;5044029;28;20037;-76
2023/01/02 01:13:44;;;;;;;20.48;9.57;;;;;;;18.66;64.65;100975.94;5044721;28;20072;-74
2023/01/02 01:16:13;;;;;;;21.90;10.77;;;;;;;18.63;64.71;100973.78;5044943;28;20071;-75
2023/01/02 01:18:39;;;;;;;33.35;11.02;;;;;;;18.35;65.50;100962.34;5023230;28;20040;-75
2023/01/02 01:21:13;;;;;;;21.38;9.73;;;;;;;19.09;63.26;100964.38;5025793;28;20040;-75
2023/01/02 01:23:39;;;;;;;28.95;11.05;;;;;;;18.78;64.03;100963.66;5027667;28;20374;-76
2023/01/02 01:26:07;;;;;;;16.38;9.43;;;;;;;18.74;63.83;100961.75;5015606;28;20033;-75
2023/01/02 01:28:32;;;;;;;15.63;9.18;;;;;;;18.77;64.50;100970.19;5025263;28;20605;-74
2023/01/02 01:31:06;;;;;;;21.45;10.05;;;;;;;18.49;65.50;100962.63;5025555;28;20047;-75
2023/01/02 01:33:32;;;;;;;20.52;10.07;;;;;;;18.65;64.37;100960.69;5025449;28;20053;-75
2023/01/02 01:36:03;;;;;;;17.70;9.65;;;;;;;18.39;65.75;100959.88;5028075;28;20132;-75
2023/01/02 01:38:29;;;;;;;18.80;8.50;;;;;;;17.95;67.51;100962.31;5030710;28;20091;-75
2023/01/02 01:40:55;;;;;;;15.35;8.73;;;;;;;18.73;64.48;100954.69;5025900;28;20044;-76
2023/01/02 01:43:57;;;;;;;16.38;8.98;;;;;;;18.53;64.70;100963.72;5027742;28;20026;-76
2023/01/02 01:46:25;;;;;;;21.80;9.73;;;;;;;18.63;64.81;100955.53;4988779;28;20053;-75
2023/01/02 01:49:01;;;;;;;23.63;8.85;;;;;;;18.53;64.67;100961.00;5004540;28;20137;-77
2023/01/02 01:51:29;;;;;;;19.98;9.30;;;;;;;18.54;63.95;100959.06;5002878;28;20038;-76
2023/01/02 01:54:19;;;;;;;24.88;9.98;;;;;;;18.70;64.46;100953.34;5003595;28;20034;-76
2023/01/02 01:56:54;;;;;;;22.55;9.57;;;;;;;18.83;63.62;100949.22;5002382;28;20035;-76
2023/01/02 01:59:19;;;;;;;17.63;9.20;;;;;;;19.02;63.04;100959.25;4998564;28;20588;-76
2023/01/02 02:01:47;;;;;;;22.50;9.60;;;;;;;18.37;65.33;100956.63;5000879;28;20053;-75
2023/01/02 02:04:12;;;;;;;17.85;8.27;;;;;;;18.60;64.53;100952.53;5005642;28;20041;-76
2023/01/02 02:06:39;;;;;;;17.38;9.38;;;;;;;18.76;63.82;100948.69;4992636;28;20141;-76
2023/01/02 02:09:14;;;;;;;23.15;9.38;;;;;;;17.39;68.84;100949.69;5000178;28;20030;-75
2023/01/02 02:11:40;;;;;;;22.67;12.07;;;;;;;17.88;67.80;100945.47;5000743;28;20577;-76
2023/01/02 02:14:06;;;;;;;15.40;10.02;;;;;;;17.40;69.17;100941.28;5002532;28;20042;-77
2023/01/02 02:16:48;;;;;;;18.92;9.25;;;;;;;18.77;64.44;100939.44;5007874;28;20088;-76
2023/01/02 02:19:42;;;;;;;17.30;8.38;;;;;;;18.17;65.50;100930.25;5000904;28;20034;-76
2023/01/02 02:22:29;;;;;;;19.67;10.00;;;;;;;18.32;66.69;100924.78;5005601;28;20144;-75
2023/01/02 02:25:26;;;;;;;20.17;8.70;;;;;;;18.33;66.12;100914.72;5004093;28;20133;-75
2023/01/02 02:28:22;;;;;;;19.17;9.05;;;;;;;18.07;67.39;100926.69;5007185;28;20068;-76
2023/01/02 02:31:17;;;;;;;14.45;8.77;;;;;;;19.01;64.16;100922.19;5004907;28;20049;-75
2023/01/02 02:34:03;;;;;;;19.58;8.63;;;;;;;19.10;63.23;100923.22;5006078;28;20050;-75
2023/01/02 02:36:50;;;;;;;21.20;8.68;;;;;;;18.45;65.61;100934.34;5005268;28;20121;-76
2023/01/02 02:39:23;;;;;;;16.63;8.68;;;;;;;18.08;66.77;100929.16;5006350;28;20070;-75
2023/01/02 02:42:06;;;;;;;21.15;7.90;;;;;;;17.98;66.94;100934.59;5005383;28;20138;-76
2023/01/02 02:44:38;;;;;;;19.23;8.88;;;;;;;18.65;65.06;100937.03;5005616;28;20130;-74
2023/01/02 02:47:11;;;;;;;22.10;9.15;;;;;;;18.81;64.97;100941.31;5006605;28;20048;-75
2023/01/02 02:50:01;;;;;;;22.75;8.73;;;;;;;18.57;65.40;100934.84;5004915;28;20046;-75
2023/01/02 02:52:29;;;;;;;16.83;8.25;;;;;;;18.92;64.70;100923.03;5005206;28;20114;-75
2023/01/02 02:55:18;;;;;;;17.15;9.52;;;;;;;19.30;62.60;100923.13;5007058;28;20037;-75
2023/01/02 02:57:45;;;;;;;21.60;8.38;;;;;;;18.64;65.24;100927.22;5004982;28;20046;-76
2023/01/02 03:00:18;;;;;;;18.48;8.43;;;;;;;18.09;67.44;100935.41;5004835;28;20429;-75
2023/01/02 03:02:44;;;;;;;21.40;9.18;;;;;;;18.64;65.89;100929.94;5007540;28;20066;-76
2023/01/02 03:05:17;;;;;;;15.43;8.45;;;;;;;18.88;64.23;100935.59;5006593;28;20041;-73
2023/01/02 03:07:57;;;;;;;16.98;7.78;;;;;;;18.68;65.56;100924.75;5006901;28;20080;-74
2023/01/02 03:10:29;;;;;;;19.05;8.48;;;;;;;18.91;64.28;100915.94;5004047;28;20054;-75
2023/01/02 03:13:04;;;;;;;15.57;8.13;;;;;;;19.40;63.00;100922.28;5006921;28;20050;-76
2023/01/02 03:15:41;;;;;;;14.70;7.95;;;;;;;18.99;64.13;100918.91;5004667;28;20277;-75
2023/01/02 03:18:27;;;;;;;19.30;8.30;;;;;;;17.83;68.81;100917.44;5002815;28;20034;-75
2023/01/02 03:21:35;;;;;;;21.00;9.40;;;;;;;18.19;67.29;100919.91;4951748;29;20039;-75
2023/01/02 03:24:11;;;;;;;22.30;8.70;;;;;;;19.21;63.77;100913.94;4889377;29;20068;-75
2023/01/02 03:26:41;;;;;;;23.95;7.93;;;;;;;18.35;67.69;100923.44;4896574;29;20406;-76
2023/01/02 03:29:16;;;;;;;17.70;8.07;;;;;;;18.69;66.02;100919.00;4893498;29;20031;-75
2023/01/02 03:31:46;;;;;;;18.05;8.45;;;;;;;19.20;64.01;100916.94;4893726;29;20044;-75
2023/01/02 03:34:19;;;;;;;25.13;10.27;;;;;;;18.61;65.93;100914.16;4896274;29;20041;-76
2023/01/02 03:36:51;;;;;;;23.40;8.82;;;;;;;18.22;67.38;100910.41;4895110;29;20044;-74
2023/01/02 03:39:20;;;;;;;15.93;8.77;;;;;;;18.15;68.09;100910.66;4897477;29;20151;-75
2023/01/02 03:41:54;;;;;;;16.98;7.47;;;;;;;18.58;66.52;100908.44;4895535;29;20145;-74
2023/01/02 03:44:23;;;;;;;24.60;9.18;;;;;;;18.45;66.88;100900.84;4896020;29;20078;-74
2023/01/02 03:46:54;;;;;;;23.20;9.82;;;;;;;18.30;68.77;100907.09;4899597;28;20047;-75
2023/01/02 03:49:32;;;;;;;15.98;8.05;;;;;;;18.72;66.52;100906.75;4917184;29;20032;-75
2023/01/02 03:51:58;;;;;;;19.35;8.55;;;;;;;18.92;65.25;100899.34;4901660;29;20536;-75
2023/01/02 03:54:25;;;;;;;18.00;8.50;;;;;;;18.40;67.88;100898.91;4911016;29;20033;-75
2023/01/02 03:57:03;;;;;;;18.08;8.07;;;;;;;18.57;67.59;100893.22;4909396;28;20556;-74
2023/01/02 03:59:47;;;;;;;26.25;10.07;;;;;;;18.83;66.73;100901.00;4959446;28;20039;-75
2023/01/02 04:02:22;;;;;;;22.65;9.88;;;;;;;18.48;66.86;100897.56;5021784;28;20030;-76
2023/01/02 04:04:57;;;;;;;17.50;7.68;;;;;;;18.06;69.71;100909.56;5016637;28;20072;-76
2023/01/02 04:07:41;;;;;;;16.08;8.13;;;;;;;18.22;70.11;100905.75;5015795;28;20049;-75
2023/01/02 04:10:10;;;;;;;15.38;7.97;;;;;;;18.38;68.70;100896.47;5000088;28;20033;-75
2023/01/02 04:12:38;;;;;;;16.23;7.57;;;;;;;18.51;68.75;100897.84;5015910;28;20366;-75
2023/01/02 04:15:08;;;;;;;16.35;8.23;;;;;;;19.07;66.03;100893.00;5015116;28;20034;-74
2023/01/02 04:17:44;;;;;;;12.23;7.00;;;;;;;18.47;68.48;100902.22;5016225;28;20092;-75
2023/01/02 04:20:17;;;;;;;19.05;6.65;;;;;;;18.19;68.92;100905.50;5000612;28;20493;-74
2023/01/02 04:22:49;;;;;;;18.48;7.80;;;;;;;18.69;67.18;100899.97;5016480;28;20114;-75
2023/01/02 04:25:17;;;;;;;19.85;7.50;;;;;;;18.70;67.77;100907.06;5016481;28;20052;-75
2023/01/02 04:27:58;;;;;;;16.08;6.57;;;;;;;18.34;68.94;100905.47;4997556;28;20399;-76
2023/01/02 04:30:27;;;;;;;14.70;7.80;;;;;;;18.29;69.69;100916.34;5015521;28;20121;-75
2023/01/02 04:32:53;;;;;;;12.80;5.97;;;;;;;18.18;69.94;100912.03;5015471;28;20383;-77
2023/01/02 04:35:23;;;;;;;15.52;7.40;;;;;;;18.00;70.22;100910.69;5015237;28;20101;-75
2023/01/02 04:37:48;;;;;;;13.93;6.50;;;;;;;17.79;71.91;100911.75;5015179;28;20033;-75
2023/01/02 04:40:18;;;;;;;11.57;5.40;;;;;;;18.00;71.50;100907.13;5014398;28;20034;-76
2023/01/02 04:42:44;;;;;;;16.45;6.63;;;;;;;18.06;71.22;100917.72;5014147;28;20033;-75
2023/01/02 04:45:09;;;;;;;14.05;6.80;;;;;;;18.31;70.66;100916.91;5014577;28;20709;-76
2023/01/02 04:47:35;;;;;;;12.18;5.43;;;;;;;18.72;69.14;100913.03;5013711;28;20053;-75
2023/01/02 04:50:02;;;;;;;17.85;6.55;;;;;;;18.28;69.68;100914.72;5015077;28;20458;-76
2023/01/02 04:52:27;;;;;;;11.07;5.85;;;;;;;17.86;71.87;100914.19;5014987;28;20034;-74
2023/01/02 04:54:52;;;;;;;13.15;6.25;;;;;;;18.47;69.14;100912.28;5014462;28;20037;-76
2023/01/02 04:57:18;;;;;;;17.45;7.07;;;;;;;18.79;68.22;100912.75;5013961;28;20038;-75
2023/01/02 04:59:43;;;;;;;11.50;5.82;;;;;;;18.20;69.85;100910.66;5014697;28;20048;-75
2023/01/02 05:02:09;;;;;;;12.82;6.22;;;;;;;18.39;69.80;100913.63;5015285;28;20026;-76
2023/01/02 05:04:34;;;;;;;19.45;6.30;;;;;;;18.24;69.68;100919.91;5015064;28;20061;-75
2023/01/02 05:07:01;;;;;;;10.23;6.70;;;;;;;18.07;70.68;100915.81;5015120;28;20037;-75
2023/01/02 05:09:26;;;;;;;9.60;5.85;;;;;;;17.95;71.26;100920.72;5014914;28;20113;-76
2023/01/02 05:11:52;;;;;;;16.65;6.55;;;;;;;18.27;69.90;100916.63;5014736;28;20529;-75
2023/01/02 05:14:17;;;;;;;13.35;5.32;;;;;;;18.51;68.76;100921.53;5014336;28;20524;-74
2023/01/02 05:16:42;;;;;;;14.15;4.88;;;;;;;18.64;68.33;100920.94;5014336;28;20041;-75
2023/01/02 05:19:08;;;;;;;17.13;6.65;;;;;;;18.60;68.66;100925.31;5014524;28;20509;-76
2023/01/02 05:24:17;;;;;;;11.05;5.03;;;;;;;17.96;69.90;100919.66;5000097;28;20501;-75
2023/01/02 05:26:42;;;;;;;17.73;6.88;;;;;;;18.68;68.76;100931.00;5013796;28;20042;-75
2023/01/02 05:29:08;;;;;;;12.93;4.57;;;;;;;18.56;68.42;100914.16;5014586;28;20025;-77
2023/01/02 05:31:33;;;;;;;10.65;5.47;;;;;;;18.28;68.60;100931.03;5013866;28;20045;-75
2023/01/02 05:33:59;;;;;;;10.63;4.90;;;;;;;18.52;68.83;100928.59;5013226;28;20358;-75
2023/01/02 05:36:25;;;;;;;12.15;4.47;;;;;;;19.23;66.14;100929.97;5014146;28;20038;-74
2023/01/02 05:38:51;;;;;;;9.43;4.60;;;;;;;18.59;67.45;100935.41;5012541;28;20042;-76
2023/01/02 05:41:17;;;;;;;15.65;4.95;;;;;;;18.22;70.15;100934.88;5014157;28;20554;-75
2023/01/02 05:43:43;;;;;;;10.98;4.85;;;;;;;18.98;66.95;100924.66;5013325;28;20034;-75
2023/01/02 05:46:19;;;;;;;10.85;4.65;;;;;;;18.17;69.98;100930.25;5013651;28;20092;-75
2023/01/02 05:48:45;;;;;;;9.13;4.35;;;;;;;18.31;69.21;100933.22;5020683;28;20127;-77
2023/01/02 05:51:14;;;;;;;11.45;4.00;;;;;;;18.03;70.15;100942.75;5014036;28;20037;-76
2023/01/02 05:53:39;;;;;;;9.20;4.35;;;;;;;18.01;71.57;100941.38;5014019;28;20056;-77
2023/01/02 05:56:26;;;;;;;15.75;5.25;;;;;;;18.27;69.91;100946.56;5014332;28;20034;-76
2023/01/02 05:58:52;;;;;;;11.40;4.78;;;;;;;18.57;69.40;100940.31;4994682;28;20101;-76
2023/01/02 06:01:22;;;;;;;9.15;4.30;;;;;;;17.87;71.41;100948.44;5008126;28;20089;-77
2023/01/02 06:03:50;;;;;;;8.10;4.80;;;;;;;17.94;72.08;100947.13;5015176;28;20078;-78
2023/01/02 06:06:18;;;;;;;12.40;5.38;;;;;;;18.53;69.76;100941.94;5014322;28;20509;-76
2023/01/02 06:08:43;;;;;;;10.80;6.03;;;;;;;18.47;70.24;100947.66;5013731;28;20037;-77
2023/01/02 06:11:09;;;;;;;9.68;5.28;;;;;;;18.58;69.46;100946.53;5014437;28;20493;-75
2023/01/02 06:13:36;;;;;;;13.88;6.18;;;;;;;18.94;67.38;100929.03;5014433;28;20033;-77
2023/01/02 06:16:02;;;;;;;11.23;5.18;;;;;;;18.54;69.48;100937.28;5013847;28;20042;-77
2023/01/02 06:18:29;;;;;;;9.63;5.35;;;;;;;17.97;71.77;100935.69;5013123;28;20125;-77
2023/01/02 06:21:03;;;;;;;13.73;4.97;;;;;;;18.11;71.19;100934.06;5014712;28;20042;-77
2023/01/02 06:23:28;;;;;;;7.70;5.53;;;;;;;17.76;72.36;100946.81;5009791;28;20054;-79
2023/01/02 06:25:54;;;;;;;9.55;5.15;;;;;;;17.92;72.74;100953.91;4996246;28;20045;-76
2023/01/02 06:28:19;;;;;;;10.70;5.53;;;;;;;17.59;73.35;100954.41;5012939;28;20387;-77
2023/01/02 06:30:45;;;;;;;11.07;5.30;;;;;;;16.85;78.21;100972.78;5012478;28;20049;-74
2023/01/02 06:33:10;;;;;;;15.75;5.65;;;;;;;16.49;80.77;100983.44;5012572;28;20042;-73
2023/01/02 06:35:36;;;;;;;12.48;5.45;;;;;;;16.86;79.49;100994.28;4993337;28;20045;-73
2023/01/02 06:38:01;;;;;;;4.18;3.30;;;;;;;16.20;79.37;101017.34;5010343;28;20018;-73
2023/01/02 06:40:26;;;;;;;3.50;2.30;;;;;;;16.10;77.50;101038.94;5011968;28;20486;-74
2023/01/02 06:42:52;;;;;;;1.50;1.40;;;;;;;15.66;77.93;101038.19;5012074;28;20033;-74
2023/01/02 06:45:17;;;;;;;4.72;2.13;;;;;;;16.45;74.67;101052.00;5010953;28;20042;-75
2023/01/02 06:47:43;;;;;;;3.28;2.10;;;;;;;15.58;76.17;101041.38;5012527;28;20026;-74
2023/01/02 06:50:09;;;;;;;2.63;2.35;;;;;;;15.80;75.17;101057.59;4993699;28;20065;-73
2023/01/02 06:52:34;;;;;;;4.25;2.10;;;;;;;15.65;76.10;101068.25;5009032;28;20113;-76
2023/01/02 06:55:00;;;;;;;2.70;1.90;;;;;;;16.00;73.71;101076.78;4993538;28;20034;-72
2023/01/02 06:57:28;;;;;;;2.10;1.90;;;;;;;15.80;74.14;101084.72;5010341;28;20034;-74
2023/01/02 06:59:53;;;;;;;2.45;2.25;;;;;;;16.24;72.62;101094.38;5012488;28;20108;-74
2023/01/02 07:02:19;;;;;;;3.45;2.20;;;;;;;15.21;75.23;101105.31;5018743;28;20086;-75
2023/01/02 07:04:44;;;;;;;4.63;2.63;;;;;;;15.37;74.98;101087.38;5011277;28;20478;-75
2023/01/02 07:07:09;;;;;;;3.47;3.05;;;;;;;15.91;72.97;101110.84;5011972;28;20044;-75
2023/01/02 07:09:35;;;;;;;3.95;2.65;;;;;;;15.34;74.33;101129.31;5011727;28;20394;-75
2023/01/02 07:12:00;;;;;;;3.38;2.72;;;;;;;14.90;75.57;101122.94;5009459;28;20029;-75
2023/01/02 07:14:25;;;;;;;4.15;3.25;;;;;;;14.93;75.30;101168.47;5011980;28;20480;-75
2023/01/02 07:16:51;;;;;;;5.03;4.07;;;;;;;15.50;73.80;101136.63;5012786;28;20049;-74
2023/01/02 07:19:16;;;;;;;6.00;4.35;;;;;;;15.17;75.27;101147.47;5012638;28;20033;-76
2023/01/02 07:21:42;;;;;;;5.22;4.03;;;;;;;14.69;75.92;101171.56;5011341;28;20038;-75
2023/01/02 07:24:16;;;;;;;6.50;5.47;;;;;;;15.08;75.37;101178.72;5012757;28;20066;-76
2023/01/02 07:26:42;;;;;;;7.93;6.47;;;;;;;15.38;73.50;101172.94;4995385;28;20044;-76
2023/01/02 07:29:08;;;;;;;11.23;7.88;;;;;;;15.44;73.91;101177.41;5012848;28;20029;-75
2023/01/02 07:31:34;;;;;;;10.60;7.68;;;;;;;15.86;71.15;101188.56;5010811;28;20042;-74
2023/01/02 07:34:02;;;;;;;12.48;8.10;;;;;;;15.04;74.03;101195.69;5012433;28;20042;-75
2023/01/02 07:36:27;;;;;;;9.20;7.63;;;;;;;15.03;73.75;101210.28;5011990;28;20252;-75
2023/01/02 07:38:56;;;;;;;11.75;8.63;;;;;;;15.26;74.40;101210.97;4991084;28;20348;-76
2023/01/02 07:41:24;;;;;;;10.68;8.80;;;;;;;15.39;73.50;101216.03;5006668;28;20040;-74
2023/01/02 07:43:51;;;;;;;12.70;8.80;;;;;;;14.90;74.66;101217.66;5012520;28;20058;-76
2023/01/02 07:46:18;;;;;;;12.07;8.27;;;;;;;15.89;71.23;101232.25;5011978;28;20038;-75
2023/01/02 07:48:44;;;;;;;15.25;9.68;;;;;;;15.32;72.59;101242.47;5018347;28;20121;-74
2023/01/02 07:51:11;;;;;;;15.27;9.82;;;;;;;15.29;73.37;101247.56;4993846;28;20042;-75
2023/01/02 07:53:37;;;;;;;14.25;10.30;;;;;;;15.75;71.44;101256.16;5011832;28;20077;-76
2023/01/02 07:56:03;;;;;;;13.68;8.02;;;;;;;14.62;75.61;101266.38;5011566;28;20030;-75
2023/01/02 07:58:29;;;;;;;11.00;6.90;;;;;;;14.38;76.93;101272.94;5010998;28;20045;-75
2023/01/02 08:00:54;;;;;;;9.00;4.70;;;;;;;13.54;78.96;101283.44;5011827;28;20133;-73
2023/01/02 08:03:20;;;;;;;12.48;5.47;;;;;;;13.41;80.40;101294.44;5011559;28;20049;-76
2023/01/02 08:05:46;;;;;;;15.63;6.10;;;;;;;13.61;77.55;101309.28;5011179;28;20470;-75
2023/01/02 08:08:11;;;;;;;14.20;5.65;;;;;;;14.13;75.86;101319.13;5012021;28;20020;-75
2023/01/02 08:10:37;;;;;;;13.93;5.60;;;;;;;14.49;74.11;101319.91;5013199;28;20038;-76
2023/01/02 08:13:06;;;;;;;12.25;3.95;;;;;;;13.64;77.12;101340.41;5011617;28;20041;-76
2023/01/02 08:15:33;;;;;;;12.18;4.72;;;;;;;13.64;76.93;101346.63;5010890;28;20038;-76
2023/01/02 08:17:58;;;;;;;9.48;3.65;;;;;;;14.46;74.52;101337.47;5011457;28;20038;-77
2023/01/02 08:20:24;;;;;;;7.85;2.92;;;;;;;14.35;73.30;101348.31;5011677;28;20096;-75
2023/01/02 08:22:50;;;;;;;14.77;7.60;;;;;;;15.28;70.22;101351.50;5012135;28;20046;-76
2023/01/02 08:25:16;;;;;;;10.75;4.10;;;;;;;14.74;71.18;101369.97;5011568;28;20037;-77
2023/01/02 08:27:41;;;;;;;12.05;4.32;;;;;;;14.63;71.25;101372.69;5011454;28;20402;-76
2023/01/02 08:30:07;;;;;;;8.50;3.63;;;;;;;14.88;70.91;101386.75;5011680;28;20041;-74
2023/01/02 08:32:37;;;;;;;7.72;4.00;;;;;;;14.86;71.40;101391.56;5014712;28;20625;-75
2023/01/02 08:35:05;;;;;;;14.07;9.25;;;;;;;14.92;69.67;101396.03;5015604;28;20042;-74
2023/01/02 08:37:30;;;;;;;8.10;4.65;;;;;;;14.91;71.25;101403.34;5014240;28;20069;-75
2023/01/02 08:39:56;;;;;;;11.18;6.30;;;;;;;15.19;70.00;101412.53;5013886;28;20446;-75
2023/01/02 08:42:21;;;;;;;10.27;5.45;;;;;;;15.12;69.63;101417.25;5014014;28;20121;-74
2023/01/02 08:44:46;;;;;;;10.73;5.40;;;;;;;15.47;69.45;101423.38;5014167;28;20044;-74
2023/01/02 08:47:12;;;;;;;10.27;5.38;;;;;;;15.25;70.60;101423.22;5017839;28;20037;-75
2023/01/02 08:49:37;;;;;;;12.10;7.60;;;;;;;15.03;71.36;101434.94;5017629;28;20080;-75
2023/01/02 08:52:03;;;;;;;10.82;5.78;;;;;;;14.76;71.75;101432.78;5013701;28;20034;-76
2023/01/02 08:54:28;;;;;;;19.90;8.65;;;;;;;15.16;70.17;101440.06;5014018;28;20034;-75
2023/01/02 08:56:54;;;;;;;13.93;6.30;;;;;;;16.04;67.86;101441.19;4995385;28;20104;-76
2023/01/02 08:59:23;;;;;;;13.68;7.13;;;;;;;16.29;66.69;101438.91;4995090;28;20046;-75
2023/01/02 09:01:48;;;;;;;10.70;5.50;;;;;;;15.85;68.18;101434.38;5016234;28;20038;-74
2023/01/02 09:04:14;;;;;;;22.17;11.30;;;;;;;15.57;68.24;101447.94;5013507;28;20175;-74
2023/01/02 09:06:40;;;;;;;11.50;6.32;;;;;;;16.25;66.96;101442.34;4997092;28;20046;-75
2023/01/02 09:09:07;;;;;;;15.10;7.68;;;;;;;15.27;70.01;101455.47;5013186;28;20493;-75
2023/01/02 09:11:34;;;;;;;13.85;5.53;;;;;;;15.02;72.44;101463.09;5012442;28;20074;-75
2023/01/02 09:14:01;;;;;;;12.43;6.88;;;;;;;15.60;68.84;101469.97;5013816;28;20515;-76
2023/01/02 09:16:27;;;;;;;10.98;5.82;;;;;;;15.49;68.84;101473.53;5010436;28;20069;-73
2023/01/02 09:18:55;;;;;;;13.35;5.68;;;;;;;15.46;70.46;101465.09;5013118;28;20043;-73
2023/01/02 09:21:21;;;;;;;7.18;5.05;;;;;;;15.23;70.49;101476.81;5012631;28;20042;-73
2023/01/02 09:23:46;;;;;;;9.48;5.63;;;;;;;15.50;70.33;101480.63;5012686;28;20513;-75
2023/01/02 09:26:12;;;;;;;7.78;5.88;;;;;;;15.23;71.27;101492.22;5012789;28;20057;-75
2023/01/02 09:28:37;;;;;;;7.28;5.18;;;;;;;14.90;71.67;101495.56;5012861;28;20069;-75
2023/01/02 09:31:05;;;;;;;8.68;6.05;;;;;;;14.51;73.63;101513.34;5012697;28;20137;-75
2023/01/02 09:33:30;;;;;;;10.50;8.00;;;;;;;15.32;70.32;101513.25;5013808;28;20034;-73
2023/01/02 09:36:03;;;;;;;9.43;5.32;;;;;;;14.53;73.34;101515.81;5013396;28;20038;-77
2023/01/02 09:38:29;;;;;;;20.13;6.05;;;;;;;14.28;74.26;101520.63;5011170;28;20556;-77
2023/01/02 09:41:31;;;;;;;6.93;3.80;;;;;;;14.79;72.55;101524.31;5013808;28;20034;-76
2023/01/02 09:44:12;;;;;;;5.80;3.45;;;;;;;13.89;74.66;101524.72;4932237;29;20055;-76
2023/01/02 09:46:59;;;;;;;6.50;4.00;;;;;;;14.98;72.10;101528.50;4933701;29;20075;-73
2023/01/02 09:49:34;;;;;;;4.20;3.60;;;;;;;15.43;70.70;101530.59;4931649;29;20065;-73
2023/01/02 09:52:02;;;;;;;5.93;4.03;;;;;;;14.65;71.97;101533.72;4932760;29;20554;-75
2023/01/02 09:54:31;;;;;;;12.02;5.85;;;;;;;14.92;72.45;101543.00;4932483;29;20050;-75
2023/01/02 09:57:20;;;;;;;7.82;6.07;;;;;;;15.22;71.33;101545.53;4932547;29;20075;-75
2023/01/02 10:00:08;;;;;;;6.78;4.15;;;;;;;14.98;71.33;101553.94;4932230;29;20135;-76
2023/01/02 10:02:46;;;;;;;7.28;5.68;;;;;;;15.40;71.20;101558.09;4932017;29;20032;-75
2023/01/02 10:05:30;;;;;;;9.38;5.78;;;;;;;15.46;70.02;101568.00;4925122;29;20079;-77
2023/01/02 10:08:23;;;;;;;8.50;4.32;;;;;;;15.25;70.41;101561.31;4932597;29;20031;-75
2023/01/02 10:10:54;;;;;;;7.80;3.97;;;;;;;14.93;71.45;101563.59;4932046;29;20052;-75
2023/01/02 10:13:30;;;;;;;5.32;3.58;;;;;;;15.45;69.25;101567.19;4931444;29;20040;-74
2023/01/02 10:15:58;;;;;;;7.70;3.85;;;;;;;15.64;68.19;101581.41;4930948;29;20079;-75
2023/01/02 10:18:29;;;;;;;9.43;3.67;;;;;;;15.64;68.86;101568.69;4935247;28;20067;-75
2023/01/02 10:20:59;;;;;;;8.13;4.05;;;;;;;15.56;68.41;101570.94;5011847;28;20494;-76
2023/01/02 10:23:29;;;;;;;11.70;3.72;;;;;;;15.30;68.81;101583.09;5011921;28;20041;-76
2023/01/02 10:26:18;;;;;;;8.73;4.22;;;;;;;15.03;70.46;101583.81;5013070;28;20041;-75
2023/01/02 10:28:49;;;;;;;8.27;3.60;;;;;;;14.73;70.89;101582.06;5012176;28;20109;-74
2023/01/02 10:31:30;;;;;;;5.15;3.97;;;;;;;15.48;68.50;101577.56;5010976;28;20037;-76
2023/01/02 10:34:02;;;;;;;4.68;3.83;;;;;;;14.78;71.85;101593.00;4994521;28;20076;-76
2023/01/02 10:36:39;;;;;;;12.95;8.05;;;;;;;15.23;69.27;101584.28;5012597;28;20180;-76
2023/01/02 10:39:08;;;;;;;18.42;14.50;;;;;;;15.51;68.00;101581.66;5012369;28;20057;-75
2023/01/02 10:41:35;;;;;;;12.10;7.32;;;;;;;16.32;65.14;101582.16;5011908;28;20100;-74
2023/01/02 10:44:14;;;;;;;14.10;7.13;;;;;;;16.54;63.78;101585.81;5012574;28;20525;-73
2023/01/02 10:46:40;;;;;;;11.27;6.88;;;;;;;15.74;66.42;101576.97;5011905;28;20486;-75
2023/01/02 10:49:08;;;;;;;7.13;3.40;;;;;;;15.44;65.86;101572.84;4993259;28;20026;-77
2023/01/02 10:51:37;;;;;;;11.23;4.57;;;;;;;16.43;64.01;101583.16;5000010;28;20049;-76
2023/01/02 10:54:07;;;;;;;12.70;4.72;;;;;;;16.36;63.95;101580.59;5009112;28;20182;-75
2023/01/02 10:56:38;;;;;;;11.95;5.93;;;;;;;16.49;63.49;101572.16;5008913;28;20038;-75
2023/01/02 10:59:22;;;;;;;11.65;5.00;;;;;;;16.43;63.49;101573.09;5010671;28;20357;-76
2023/01/02 11:01:53;;;;;;;7.78;5.95;;;;;;;16.59;62.75;101575.03;5010087;28;20102;-75
2023/01/02 11:04:23;;;;;;;12.18;3.33;;;;;;;16.11;65.03;101573.91;5010577;28;20030;-76
2023/01/02 11:06:52;;;;;;;10.63;5.35;;;;;;;16.21;63.93;101577.63;4992000;28;20038;-75
2023/01/02 11:09:20;;;;;;;11.25;5.07;;;;;;;16.68;62.91;101581.72;5009863;28;20030;-75
2023/01/02 11:11:54;;;;;;;13.00;4.78;;;;;;;16.60;62.76;101587.56;5007351;28;20136;-75
2023/01/02 11:14:32;;;;;;;9.27;4.90;;;;;;;16.00;63.88;101591.84;5008227;28;20077;-75
2023/01/02 11:17:07;;;;;;;8.60;3.15;;;;;;;16.90;63.13;101589.09;5009666;28;20113;-76
2023/01/02 11:20:02;;;;;;;14.32;5.15;;;;;;;15.86;65.99;101614.09;5005467;28;20394;-74
2023/01/02 11:22:34;;;;;;;9.25;3.95;;;;;;;15.37;66.23;101610.06;4983285;28;20038;-75
2023/01/02 11:25:06;;;;;;;25.65;11.32;;;;;;;15.38;67.32;101612.53;4985052;28;20062;-76
2023/01/02 11:27:35;;;;;;;19.75;7.65;;;;;;;15.23;68.06;101628.44;4982846;28;20034;-77
2023/01/02 11:30:07;;;;;;;18.55;8.90;;;;;;;15.23;67.59;101625.72;4984618;28;20038;-75
2023/01/02 11:32:38;;;;;;;17.55;5.15;;;;;;;15.46;66.95;101630.31;4984352;28;20041;-76
2023/01/02 11:35:04;;;;;;;39.47;15.32;;;;;;;16.56;63.20;101629.81;4984717;28;20039;-76